sensor_id;sensor_type;location;lat;lon;timestamp;temperature;humidity
35381;DHT22;21486;51.916;8.378;2023-02-28T00:00:47;-0.90;91.10
35381;DHT22;21486;51.916;8.378;2023-02-28T00:03:12;-0.90;91.20
35381;DHT22;21486;51.916;8.378;2023-02-28T00:05:38;-0.90;91.40
35381;DHT22;21486;51.916;8.378;2023-02-28T00:08:04;-0.90;91.80
35381;DHT22;21486;51.916;8.378;2023-02-28T00:10:30;-1.00;91.80
35381;DHT22;21486;51.916;8.378;2023-02-28T00:12:58;-1.10;91.90
35381;DHT22;21486;51.916;8.378;2023-02-28T00:15:24;-1.00;92.50
35381;DHT22;21486;51.916;8.378;2023-02-28T00:17:49;-1.10;92.20
35381;DHT22;21486;51.916;8.378;2023-02-28T00:20:15;-1.10;92.30
35381;DHT22;21486;51.916;8.378;2023-02-28T00:22:45;-1.20;92.40
35381;DHT22;21486;51.916;8.378;2023-02-28T00:25:11;-1.20;92.90
35381;DHT22;21486;51.916;8.378;2023-02-28T00:27:37;-1.20;93.30
35381;DHT22;21486;51.916;8.378;2023-02-28T00:30:03;-1.20;93.10
35381;DHT22;21486;51.916;8.378;2023-02-28T00:32:29;-1.20;93.20
35381;DHT22;21486;51.916;8.378;2023-02-28T00:34:55;-1.20;93.20
35381;DHT22;21486;51.916;8.378;2023-02-28T00:37:20;-1.20;93.10
35381;DHT22;21486;51.916;8.378;2023-02-28T00:39:45;-1.20;93.20
35381;DHT22;21486;51.916;8.378;2023-02-28T00:42:11;-1.20;93.10
35381;DHT22;21486;51.916;8.378;2023-02-28T00:44:36;-1.10;93.20
35381;DHT22;21486;51.916;8.378;2023-02-28T00:47:02;-1.10;93.30
35381;DHT22;21486;51.916;8.378;2023-02-28T00:49:27;-1.10;93.30
35381;DHT22;21486;51.916;8.378;2023-02-28T00:51:53;-1.10;93.40
35381;DHT22;21486;51.916;8.378;2023-02-28T00:54:19;-1.10;93.50
35381;DHT22;21486;51.916;8.378;2023-02-28T00:56:44;-1.00;93.40
35381;DHT22;21486;51.916;8.378;2023-02-28T00:59:11;-1.00;93.20
35381;DHT22;21486;51.916;8.378;2023-02-28T01:01:36;-1.00;93.50
35381;DHT22;21486;51.916;8.378;2023-02-28T01:04:02;-1.00;93.20
35381;DHT22;21486;51.916;8.378;2023-02-28T01:06:28;-1.00;93.50
35381;DHT22;21486;51.916;8.378;2023-02-28T01:08:53;-1.10;93.40
35381;DHT22;21486;51.916;8.378;2023-02-28T01:11:19;-1.00;93.50
35381;DHT22;21486;51.916;8.378;2023-02-28T01:13:45;-1.00;93.50
35381;DHT22;21486;51.916;8.378;2023-02-28T01:16:10;-1.00;93.50
35381;DHT22;21486;51.916;8.378;2023-02-28T01:18:37;-0.90;93.20
35381;DHT22;21486;51.916;8.378;2023-02-28T01:21:03;-1.00;93.30
35381;DHT22;21486;51.916;8.378;2023-02-28T01:23:29;-1.10;93.20
35381;DHT22;21486;51.916;8.378;2023-02-28T01:25:54;-1.10;93.50
35381;DHT22;21486;51.916;8.378;2023-02-28T01:28:20;-1.10;93.50
35381;DHT22;21486;51.916;8.378;2023-02-28T01:33:02;-1.20;93.60
35381;DHT22;21486;51.916;8.378;2023-02-28T01:35:28;-1.30;93.70
35381;DHT22;21486;51.916;8.378;2023-02-28T01:37:53;-1.30;94.10
35381;DHT22;21486;51.916;8.378;2023-02-28T01:40:19;-1.30;94.10
35381;DHT22;21486;51.916;8.378;2023-02-28T01:42:45;-1.40;94.30
35381;DHT22;21486;51.916;8.378;2023-02-28T01:45:30;-1.40;94.30
35381;DHT22;21486;51.916;8.378;2023-02-28T01:48:02;-1.30;94.10
35381;DHT22;21486;51.916;8.378;2023-02-28T01:50:33;-1.40;94.00
35381;DHT22;21486;51.916;8.378;2023-02-28T01:53:02;-1.40;94.00
35381;DHT22;21486;51.916;8.378;2023-02-28T01:55:30;-1.40;93.80
35381;DHT22;21486;51.916;8.378;2023-02-28T01:57:58;-1.30;93.40
35381;DHT22;21486;51.916;8.378;2023-02-28T02:00:27;-1.30;93.10
35381;DHT22;21486;51.916;8.378;2023-02-28T02:02:57;-1.40;93.00
35381;DHT22;21486;51.916;8.378;2023-02-28T02:05:26;-1.50;93.00
35381;DHT22;21486;51.916;8.378;2023-02-28T02:07:56;-1.50;93.20
35381;DHT22;21486;51.916;8.378;2023-02-28T02:10:47;-1.60;93.30
35381;DHT22;21486;51.916;8.378;2023-02-28T02:16:38;-1.60;93.30
35381;DHT22;21486;51.916;8.378;2023-02-28T02:22:09;-1.50;93.10
35381;DHT22;21486;51.916;8.378;2023-02-28T02:25:11;-1.40;93.20
35381;DHT22;21486;51.916;8.378;2023-02-28T02:33:59;-1.50;93.60
35381;DHT22;21486;51.916;8.378;2023-02-28T02:36:33;-1.50;93.70
35381;DHT22;21486;51.916;8.378;2023-02-28T02:39:14;-1.60;94.00
35381;DHT22;21486;51.916;8.378;2023-02-28T02:42:11;-1.70;94.20
35381;DHT22;21486;51.916;8.378;2023-02-28T02:45:08;-1.70;94.50
35381;DHT22;21486;51.916;8.378;2023-02-28T02:47:56;-1.80;94.70
35381;DHT22;21486;51.916;8.378;2023-02-28T02:50:32;-1.80;94.60
35381;DHT22;21486;51.916;8.378;2023-02-28T02:53:03;-1.90;95.10
35381;DHT22;21486;51.916;8.378;2023-02-28T02:55:33;-1.90;94.80
35381;DHT22;21486;51.916;8.378;2023-02-28T02:58:02;-1.90;94.80
35381;DHT22;21486;51.916;8.378;2023-02-28T03:00:42;-1.90;95.20
35381;DHT22;21486;51.916;8.378;2023-02-28T03:03:10;-1.90;94.80
35381;DHT22;21486;51.916;8.378;2023-02-28T03:05:46;-1.90;95.00
35381;DHT22;21486;51.916;8.378;2023-02-28T03:08:13;-1.90;95.10
35381;DHT22;21486;51.916;8.378;2023-02-28T03:10:52;-2.00;95.10
35381;DHT22;21486;51.916;8.378;2023-02-28T03:24:54;-2.00;94.90
35381;DHT22;21486;51.916;8.378;2023-02-28T03:29:56;-2.00;94.80
35381;DHT22;21486;51.916;8.378;2023-02-28T03:32:28;-2.10;95.00
35381;DHT22;21486;51.916;8.378;2023-02-28T03:35:02;-2.20;95.30
35381;DHT22;21486;51.916;8.378;2023-02-28T03:37:32;-2.20;95.30
35381;DHT22;21486;51.916;8.378;2023-02-28T03:40:13;-2.20;95.10
35381;DHT22;21486;51.916;8.378;2023-02-28T03:42:41;-2.20;94.90
35381;DHT22;21486;51.916;8.378;2023-02-28T03:45:18;-2.20;95.40
35381;DHT22;21486;51.916;8.378;2023-02-28T03:47:51;-2.20;95.40
35381;DHT22;21486;51.916;8.378;2023-02-28T03:50:29;-2.30;95.50
35381;DHT22;21486;51.916;8.378;2023-02-28T03:53:03;-2.30;95.60
35381;DHT22;21486;51.916;8.378;2023-02-28T03:55:34;-2.30;95.60
35381;DHT22;21486;51.916;8.378;2023-02-28T03:58:17;-2.20;95.50
35381;DHT22;21486;51.916;8.378;2023-02-28T04:00:50;-2.30;95.70
35381;DHT22;21486;51.916;8.378;2023-02-28T04:03:19;-2.30;95.80
35381;DHT22;21486;51.916;8.378;2023-02-28T04:05:51;-2.40;96.00
35381;DHT22;21486;51.916;8.378;2023-02-28T04:08:17;-2.40;96.20
35381;DHT22;21486;51.916;8.378;2023-02-28T04:10:45;-2.40;96.40
35381;DHT22;21486;51.916;8.378;2023-02-28T04:13:13;-2.50;96.50
35381;DHT22;21486;51.916;8.378;2023-02-28T04:15:39;-2.50;96.40
35381;DHT22;21486;51.916;8.378;2023-02-28T04:18:04;-2.50;96.60
35381;DHT22;21486;51.916;8.378;2023-02-28T04:20:31;-2.50;96.50
35381;DHT22;21486;51.916;8.378;2023-02-28T04:22:56;-2.50;96.50
35381;DHT22;21486;51.916;8.378;2023-02-28T04:25:22;-2.40;96.00
35381;DHT22;21486;51.916;8.378;2023-02-28T04:27:47;-2.40;96.10
35381;DHT22;21486;51.916;8.378;2023-02-28T04:30:13;-2.40;95.70
35381;DHT22;21486;51.916;8.378;2023-02-28T04:32:38;-2.40;95.60
35381;DHT22;21486;51.916;8.378;2023-02-28T04:35:04;-2.40;95.50
35381;DHT22;21486;51.916;8.378;2023-02-28T04:37:30;-2.50;95.60
35381;DHT22;21486;51.916;8.378;2023-02-28T04:39:55;-2.40;95.60
35381;DHT22;21486;51.916;8.378;2023-02-28T04:42:21;-2.50;95.70
35381;DHT22;21486;51.916;8.378;2023-02-28T04:44:46;-2.50;95.40
35381;DHT22;21486;51.916;8.378;2023-02-28T04:47:12;-2.50;95.50
35381;DHT22;21486;51.916;8.378;2023-02-28T04:49:38;-2.60;95.70
35381;DHT22;21486;51.916;8.378;2023-02-28T04:52:04;-2.60;96.00
35381;DHT22;21486;51.916;8.378;2023-02-28T04:54:30;-2.60;95.90
35381;DHT22;21486;51.916;8.378;2023-02-28T04:56:55;-2.50;95.60
35381;DHT22;21486;51.916;8.378;2023-02-28T04:59:21;-2.50;95.50
35381;DHT22;21486;51.916;8.378;2023-02-28T05:01:48;-2.50;95.50
35381;DHT22;21486;51.916;8.378;2023-02-28T05:04:14;-2.60;95.70
35381;DHT22;21486;51.916;8.378;2023-02-28T05:06:40;-2.60;95.60
35381;DHT22;21486;51.916;8.378;2023-02-28T05:09:05;-2.70;95.70
35381;DHT22;21486;51.916;8.378;2023-02-28T05:11:33;-2.70;95.90
35381;DHT22;21486;51.916;8.378;2023-02-28T05:14:04;-2.70;96.10
35381;DHT22;21486;51.916;8.378;2023-02-28T05:16:31;-2.80;96.10
35381;DHT22;21486;51.916;8.378;2023-02-28T05:18:56;-2.80;96.30
35381;DHT22;21486;51.916;8.378;2023-02-28T05:21:39;-2.90;96.30
35381;DHT22;21486;51.916;8.378;2023-02-28T05:24:09;-2.90;96.50
35381;DHT22;21486;51.916;8.378;2023-02-28T05:26:36;-2.80;96.30
35381;DHT22;21486;51.916;8.378;2023-02-28T05:29:02;-2.90;96.30
35381;DHT22;21486;51.916;8.378;2023-02-28T05:31:28;-2.80;96.10
35381;DHT22;21486;51.916;8.378;2023-02-28T05:33:53;-2.80;96.20
35381;DHT22;21486;51.916;8.378;2023-02-28T05:36:19;-2.90;96.20
35381;DHT22;21486;51.916;8.378;2023-02-28T05:38:49;-2.90;96.50
35381;DHT22;21486;51.916;8.378;2023-02-28T05:41:15;-2.90;96.60
35381;DHT22;21486;51.916;8.378;2023-02-28T05:43:41;-3.00;96.70
35381;DHT22;21486;51.916;8.378;2023-02-28T05:46:09;-3.00;96.70
35381;DHT22;21486;51.916;8.378;2023-02-28T05:48:36;-3.00;97.00
35381;DHT22;21486;51.916;8.378;2023-02-28T05:51:02;-3.00;96.90
35381;DHT22;21486;51.916;8.378;2023-02-28T05:53:28;-3.10;96.90
35381;DHT22;21486;51.916;8.378;2023-02-28T05:55:54;-3.10;96.90
35381;DHT22;21486;51.916;8.378;2023-02-28T05:58:19;-3.00;96.90
35381;DHT22;21486;51.916;8.378;2023-02-28T06:00:45;-3.10;96.90
35381;DHT22;21486;51.916;8.378;2023-02-28T06:03:11;-3.10;96.80
35381;DHT22;21486;51.916;8.378;2023-02-28T06:05:36;-3.10;96.90
35381;DHT22;21486;51.916;8.378;2023-02-28T06:08:04;-3.20;97.00
35381;DHT22;21486;51.916;8.378;2023-02-28T06:10:31;-3.10;97.10
35381;DHT22;21486;51.916;8.378;2023-02-28T06:13:03;-3.20;96.90
35381;DHT22;21486;51.916;8.378;2023-02-28T06:15:29;-3.10;97.10
35381;DHT22;21486;51.916;8.378;2023-02-28T06:17:55;-3.10;97.00
35381;DHT22;21486;51.916;8.378;2023-02-28T06:20:25;-3.10;96.70
35381;DHT22;21486;51.916;8.378;2023-02-28T06:22:55;-3.10;96.70
35381;DHT22;21486;51.916;8.378;2023-02-28T06:25:21;-3.10;96.60
35381;DHT22;21486;51.916;8.378;2023-02-28T06:27:47;-3.00;96.40
35381;DHT22;21486;51.916;8.378;2023-02-28T06:30:13;-3.10;96.50
35381;DHT22;21486;51.916;8.378;2023-02-28T06:32:39;-3.10;96.40
35381;DHT22;21486;51.916;8.378;2023-02-28T06:35:05;-3.00;96.40
35381;DHT22;21486;51.916;8.378;2023-02-28T06:37:31;-3.00;96.10
35381;DHT22;21486;51.916;8.378;2023-02-28T06:39:57;-3.00;96.20
35381;DHT22;21486;51.916;8.378;2023-02-28T06:42:24;-3.00;96.00
35381;DHT22;21486;51.916;8.378;2023-02-28T06:44:57;-3.00;96.30
35381;DHT22;21486;51.916;8.378;2023-02-28T06:47:23;-3.00;96.10
35381;DHT22;21486;51.916;8.378;2023-02-28T06:49:49;-3.00;96.20
35381;DHT22;21486;51.916;8.378;2023-02-28T06:52:15;-3.00;96.40
35381;DHT22;21486;51.916;8.378;2023-02-28T06:54:41;-3.00;96.00
35381;DHT22;21486;51.916;8.378;2023-02-28T06:57:07;-2.90;96.10
35381;DHT22;21486;51.916;8.378;2023-02-28T06:59:32;-2.90;96.10
35381;DHT22;21486;51.916;8.378;2023-02-28T07:01:58;-2.80;96.20
35381;DHT22;21486;51.916;8.378;2023-02-28T07:04:24;-2.80;95.90
35381;DHT22;21486;51.916;8.378;2023-02-28T07:06:49;-2.80;96.00
35381;DHT22;21486;51.916;8.378;2023-02-28T07:09:15;-2.70;95.80
35381;DHT22;21486;51.916;8.378;2023-02-28T07:11:41;-2.60;95.50
35381;DHT22;21486;51.916;8.378;2023-02-28T07:14:08;-2.50;95.30
35381;DHT22;21486;51.916;8.378;2023-02-28T07:16:34;-2.60;95.40
35381;DHT22;21486;51.916;8.378;2023-02-28T07:19:09;-2.50;95.50
35381;DHT22;21486;51.916;8.378;2023-02-28T07:21:47;-2.50;95.50
35381;DHT22;21486;51.916;8.378;2023-02-28T07:24:13;-2.40;95.50
35381;DHT22;21486;51.916;8.378;2023-02-28T07:29:32;-2.20;95.10
35381;DHT22;21486;51.916;8.378;2023-02-28T07:32:19;-2.10;95.00
35381;DHT22;21486;51.916;8.378;2023-02-28T07:35:03;-2.00;94.80
35381;DHT22;21486;51.916;8.378;2023-02-28T07:37:30;-1.90;94.30
35381;DHT22;21486;51.916;8.378;2023-02-28T07:40:19;-1.80;94.00
35381;DHT22;21486;51.916;8.378;2023-02-28T07:42:45;-1.60;93.20
35381;DHT22;21486;51.916;8.378;2023-02-28T07:45:11;-1.50;93.40
35381;DHT22;21486;51.916;8.378;2023-02-28T07:47:39;-1.40;93.50
35381;DHT22;21486;51.916;8.378;2023-02-28T07:50:06;-1.40;93.10
35381;DHT22;21486;51.916;8.378;2023-02-28T07:52:32;-1.20;92.50
35381;DHT22;21486;51.916;8.378;2023-02-28T07:54:57;-1.10;92.30
35381;DHT22;21486;51.916;8.378;2023-02-28T07:57:23;-1.10;92.20
35381;DHT22;21486;51.916;8.378;2023-02-28T07:59:49;-1.00;92.00
35381;DHT22;21486;51.916;8.378;2023-02-28T08:02:16;-0.80;90.90
35381;DHT22;21486;51.916;8.378;2023-02-28T08:04:41;-0.70;90.50
35381;DHT22;21486;51.916;8.378;2023-02-28T08:07:07;-0.50;88.00
35381;DHT22;21486;51.916;8.378;2023-02-28T08:09:33;-0.30;87.60
35381;DHT22;21486;51.916;8.378;2023-02-28T08:11:59;-0.10;82.60
35381;DHT22;21486;51.916;8.378;2023-02-28T08:14:25;0.10;80.60
35381;DHT22;21486;51.916;8.378;2023-02-28T08:16:50;0.20;80.40
35381;DHT22;21486;51.916;8.378;2023-02-28T08:19:16;0.20;80.20
35381;DHT22;21486;51.916;8.378;2023-02-28T08:21:42;0.40;77.10
35381;DHT22;21486;51.916;8.378;2023-02-28T08:24:07;0.50;74.90
35381;DHT22;21486;51.916;8.378;2023-02-28T08:26:33;0.80;73.00
35381;DHT22;21486;51.916;8.378;2023-02-28T08:28:58;0.90;71.20
35381;DHT22;21486;51.916;8.378;2023-02-28T08:31:24;1.00;70.90
35381;DHT22;21486;51.916;8.378;2023-02-28T08:33:50;1.20;68.80
35381;DHT22;21486;51.916;8.378;2023-02-28T08:36:18;1.30;68.20
35381;DHT22;21486;51.916;8.378;2023-02-28T08:38:44;1.40;67.70
35381;DHT22;21486;51.916;8.378;2023-02-28T08:41:11;1.50;66.80
35381;DHT22;21486;51.916;8.378;2023-02-28T08:43:38;1.80;63.30
35381;DHT22;21486;51.916;8.378;2023-02-28T08:46:04;2.00;61.70
35381;DHT22;21486;51.916;8.378;2023-02-28T08:48:32;2.20;59.30
35381;DHT22;21486;51.916;8.378;2023-02-28T08:51:03;2.30;59.70
35381;DHT22;21486;51.916;8.378;2023-02-28T08:53:29;2.40;60.60
35381;DHT22;21486;51.916;8.378;2023-02-28T08:56:07;2.70;58.70
35381;DHT22;21486;51.916;8.378;2023-02-28T08:58:33;2.90;58.00
35381;DHT22;21486;51.916;8.378;2023-02-28T09:00:59;3.00;57.30
35381;DHT22;21486;51.916;8.378;2023-02-28T09:03:26;3.20;57.40
35381;DHT22;21486;51.916;8.378;2023-02-28T09:06:02;3.50;54.60
35381;DHT22;21486;51.916;8.378;2023-02-28T09:08:29;3.90;54.10
35381;DHT22;21486;51.916;8.378;2023-02-28T09:10:58;4.20;52.50
35381;DHT22;21486;51.916;8.378;2023-02-28T09:13:25;4.60;51.80
35381;DHT22;21486;51.916;8.378;2023-02-28T09:15:53;5.20;50.20
35381;DHT22;21486;51.916;8.378;2023-02-28T09:18:18;5.40;49.40
35381;DHT22;21486;51.916;8.378;2023-02-28T09:20:44;5.70;48.80
35381;DHT22;21486;51.916;8.378;2023-02-28T09:23:12;5.80;48.10
35381;DHT22;21486;51.916;8.378;2023-02-28T09:25:40;5.90;48.40
35381;DHT22;21486;51.916;8.378;2023-02-28T09:28:10;6.40;47.00
35381;DHT22;21486;51.916;8.378;2023-02-28T09:30:36;7.00;45.50
35381;DHT22;21486;51.916;8.378;2023-02-28T09:33:02;7.70;44.90
35381;DHT22;21486;51.916;8.378;2023-02-28T09:35:27;7.50;43.30
35381;DHT22;21486;51.916;8.378;2023-02-28T09:37:53;7.40;43.90
35381;DHT22;21486;51.916;8.378;2023-02-28T09:40:19;6.90;45.10
35381;DHT22;21486;51.916;8.378;2023-02-28T09:42:45;6.80;45.10
35381;DHT22;21486;51.916;8.378;2023-02-28T09:45:22;6.60;45.60
35381;DHT22;21486;51.916;8.378;2023-02-28T09:47:49;6.20;46.50
35381;DHT22;21486;51.916;8.378;2023-02-28T09:50:22;6.20;47.50
35381;DHT22;21486;51.916;8.378;2023-02-28T09:52:49;6.20;47.50
35381;DHT22;21486;51.916;8.378;2023-02-28T09:55:20;5.80;48.20
35381;DHT22;21486;51.916;8.378;2023-02-28T09:57:47;5.20;48.80
35381;DHT22;21486;51.916;8.378;2023-02-28T10:02:51;4.90;50.50
35381;DHT22;21486;51.916;8.378;2023-02-28T10:05:18;5.00;50.00
35381;DHT22;21486;51.916;8.378;2023-02-28T10:08:01;5.10;49.80
35381;DHT22;21486;51.916;8.378;2023-02-28T10:12:56;5.20;49.60
35381;DHT22;21486;51.916;8.378;2023-02-28T10:15:24;5.00;49.80
35381;DHT22;21486;51.916;8.378;2023-02-28T10:17:53;4.80;50.20
35381;DHT22;21486;51.916;8.378;2023-02-28T10:20:20;4.70;51.90
35381;DHT22;21486;51.916;8.378;2023-02-28T10:25:27;4.60;52.50
35381;DHT22;21486;51.916;8.378;2023-02-28T10:27:54;4.70;53.00
35381;DHT22;21486;51.916;8.378;2023-02-28T10:30:24;4.90;52.00
35381;DHT22;21486;51.916;8.378;2023-02-28T10:32:51;5.30;51.20
35381;DHT22;21486;51.916;8.378;2023-02-28T10:35:23;5.30;51.00
35381;DHT22;21486;51.916;8.378;2023-02-28T10:37:55;5.20;51.30
35381;DHT22;21486;51.916;8.378;2023-02-28T10:43:04;5.60;52.30
35381;DHT22;21486;51.916;8.378;2023-02-28T10:45:32;5.70;51.50
35381;DHT22;21486;51.916;8.378;2023-02-28T10:48:03;6.00;51.00
35381;DHT22;21486;51.916;8.378;2023-02-28T10:55:43;5.90;52.90
35381;DHT22;21486;51.916;8.378;2023-02-28T10:58:21;6.30;53.00
35381;DHT22;21486;51.916;8.378;2023-02-28T11:00:48;6.30;51.80
35381;DHT22;21486;51.916;8.378;2023-02-28T11:03:30;5.90;52.40
35381;DHT22;21486;51.916;8.378;2023-02-28T11:05:56;5.70;52.90
35381;DHT22;21486;51.916;8.378;2023-02-28T11:08:22;5.40;53.30
35381;DHT22;21486;51.916;8.378;2023-02-28T11:10:54;5.40;53.90
35381;DHT22;21486;51.916;8.378;2023-02-28T11:13:26;5.70;53.70
35381;DHT22;21486;51.916;8.378;2023-02-28T11:15:55;6.10;51.90
35381;DHT22;21486;51.916;8.378;2023-02-28T11:18:37;6.60;51.20
35381;DHT22;21486;51.916;8.378;2023-02-28T11:21:04;7.10;49.50
35381;DHT22;21486;51.916;8.378;2023-02-28T11:23:32;7.50;49.20
35381;DHT22;21486;51.916;8.378;2023-02-28T11:26:00;8.00;48.20
35381;DHT22;21486;51.916;8.378;2023-02-28T11:28:27;8.20;48.00
35381;DHT22;21486;51.916;8.378;2023-02-28T11:33:31;8.20;45.30
35381;DHT22;21486;51.916;8.378;2023-02-28T11:35:58;8.20;46.10
35381;DHT22;21486;51.916;8.378;2023-02-28T11:38:26;8.00;46.60
35381;DHT22;21486;51.916;8.378;2023-02-28T11:45:59;8.60;45.10
35381;DHT22;21486;51.916;8.378;2023-02-28T11:48:32;9.10;44.70
35381;DHT22;21486;51.916;8.378;2023-02-28T12:03:37;8.40;46.00
35381;DHT22;21486;51.916;8.378;2023-02-28T12:06:24;8.90;45.20
35381;DHT22;21486;51.916;8.378;2023-02-28T12:08:57;9.00;42.70
35381;DHT22;21486;51.916;8.378;2023-02-28T12:11:59;9.00;43.00
35381;DHT22;21486;51.916;8.378;2023-02-28T12:16:52;7.90;44.70
35381;DHT22;21486;51.916;8.378;2023-02-28T12:22:09;7.10;47.20
35381;DHT22;21486;51.916;8.378;2023-02-28T12:27:15;6.50;48.80
35381;DHT22;21486;51.916;8.378;2023-02-28T12:29:54;6.10;50.20
35381;DHT22;21486;51.916;8.378;2023-02-28T12:32:27;6.10;51.10
35381;DHT22;21486;51.916;8.378;2023-02-28T12:35:01;6.00;51.70
35381;DHT22;21486;51.916;8.378;2023-02-28T12:37:42;5.90;52.30
35381;DHT22;21486;51.916;8.378;2023-02-28T12:40:19;5.70;54.30
35381;DHT22;21486;51.916;8.378;2023-02-28T12:42:58;5.70;54.10
35381;DHT22;21486;51.916;8.378;2023-02-28T12:45:46;5.60;54.60
35381;DHT22;21486;51.916;8.378;2023-02-28T12:48:18;5.50;53.20
35381;DHT22;21486;51.916;8.378;2023-02-28T12:50:45;5.40;52.00
35381;DHT22;21486;51.916;8.378;2023-02-28T12:53:31;5.30;52.40
35381;DHT22;21486;51.916;8.378;2023-02-28T12:56:09;5.40;53.00
35381;DHT22;21486;51.916;8.378;2023-02-28T12:58:54;5.30;52.60
35381;DHT22;21486;51.916;8.378;2023-02-28T13:07:30;5.40;52.80
35381;DHT22;21486;51.916;8.378;2023-02-28T13:09:59;5.50;52.40
35381;DHT22;21486;51.916;8.378;2023-02-28T13:12:26;5.70;52.50
35381;DHT22;21486;51.916;8.378;2023-02-28T13:15:16;6.00;51.40
35381;DHT22;21486;51.916;8.378;2023-02-28T13:17:48;6.30;51.00
35381;DHT22;21486;51.916;8.378;2023-02-28T13:20:19;6.60;49.40
35381;DHT22;21486;51.916;8.378;2023-02-28T13:22:48;6.70;49.20
35381;DHT22;21486;51.916;8.378;2023-02-28T13:28:11;7.20;48.00
35381;DHT22;21486;51.916;8.378;2023-02-28T13:33:29;7.40;47.00
35381;DHT22;21486;51.916;8.378;2023-02-28T13:36:22;7.60;47.30
35381;DHT22;21486;51.916;8.378;2023-02-28T13:38:53;7.90;46.00
35381;DHT22;21486;51.916;8.378;2023-02-28T13:49:31;8.40;44.70
35381;DHT22;21486;51.916;8.378;2023-02-28T13:55:10;8.60;44.80
35381;DHT22;21486;51.916;8.378;2023-02-28T14:06:34;6.60;48.70
35381;DHT22;21486;51.916;8.378;2023-02-28T14:11:33;6.10;50.10
35381;DHT22;21486;51.916;8.378;2023-02-28T14:13:59;5.80;50.90
35381;DHT22;21486;51.916;8.378;2023-02-28T14:16:26;5.60;51.10
35381;DHT22;21486;51.916;8.378;2023-02-28T14:18:56;5.50;51.60
35381;DHT22;21486;51.916;8.378;2023-02-28T14:21:29;5.60;51.30
35381;DHT22;21486;51.916;8.378;2023-02-28T14:29:00;5.50;52.40
35381;DHT22;21486;51.916;8.378;2023-02-28T14:31:29;5.40;53.00
35381;DHT22;21486;51.916;8.378;2023-02-28T14:36:33;5.30;54.00
35381;DHT22;21486;51.916;8.378;2023-02-28T14:39:01;5.30;54.40
35381;DHT22;21486;51.916;8.378;2023-02-28T14:41:31;5.40;54.20
35381;DHT22;21486;51.916;8.378;2023-02-28T14:44:00;5.40;54.00
35381;DHT22;21486;51.916;8.378;2023-02-28T14:46:36;5.40;54.20
35381;DHT22;21486;51.916;8.378;2023-02-28T14:49:03;5.40;55.20
35381;DHT22;21486;51.916;8.378;2023-02-28T14:51:29;5.40;54.60
35381;DHT22;21486;51.916;8.378;2023-02-28T14:53:57;5.40;54.80
35381;DHT22;21486;51.916;8.378;2023-02-28T14:56:24;5.30;54.00
35381;DHT22;21486;51.916;8.378;2023-02-28T14:58:51;5.20;55.60
35381;DHT22;21486;51.916;8.378;2023-02-28T15:01:18;5.20;55.10
35381;DHT22;21486;51.916;8.378;2023-02-28T15:03:44;5.20;55.20
35381;DHT22;21486;51.916;8.378;2023-02-28T15:06:16;5.10;55.10
35381;DHT22;21486;51.916;8.378;2023-02-28T15:08:43;5.10;55.20
35381;DHT22;21486;51.916;8.378;2023-02-28T15:11:13;5.10;55.00
35381;DHT22;21486;51.916;8.378;2023-02-28T15:13:46;5.10;54.90
35381;DHT22;21486;51.916;8.378;2023-02-28T15:16:22;5.10;56.00
35381;DHT22;21486;51.916;8.378;2023-02-28T15:18:50;5.10;54.30
35381;DHT22;21486;51.916;8.378;2023-02-28T15:23:43;5.10;55.50
35381;DHT22;21486;51.916;8.378;2023-02-28T15:26:16;5.10;54.60
35381;DHT22;21486;51.916;8.378;2023-02-28T15:28:44;5.10;54.60
35381;DHT22;21486;51.916;8.378;2023-02-28T15:34:05;5.10;54.10
35381;DHT22;21486;51.916;8.378;2023-02-28T15:36:32;5.00;54.30
35381;DHT22;21486;51.916;8.378;2023-02-28T15:38:59;5.00;54.10
35381;DHT22;21486;51.916;8.378;2023-02-28T15:41:26;4.90;54.30
35381;DHT22;21486;51.916;8.378;2023-02-28T15:46:36;4.90;54.70
35381;DHT22;21486;51.916;8.378;2023-02-28T15:49:01;4.90;55.20
35381;DHT22;21486;51.916;8.378;2023-02-28T15:54:06;4.90;55.70
35381;DHT22;21486;51.916;8.378;2023-02-28T15:56:33;4.90;56.00
35381;DHT22;21486;51.916;8.378;2023-02-28T15:59:01;4.80;56.30
35381;DHT22;21486;51.916;8.378;2023-02-28T16:01:28;4.80;56.50
35381;DHT22;21486;51.916;8.378;2023-02-28T16:03:56;4.90;56.80
35381;DHT22;21486;51.916;8.378;2023-02-28T16:06:24;4.80;56.40
35381;DHT22;21486;51.916;8.378;2023-02-28T16:08:51;4.70;56.70
35381;DHT22;21486;51.916;8.378;2023-02-28T16:11:18;4.70;56.90
35381;DHT22;21486;51.916;8.378;2023-02-28T16:13:44;4.70;57.40
35381;DHT22;21486;51.916;8.378;2023-02-28T16:16:14;4.80;57.20
35381;DHT22;21486;51.916;8.378;2023-02-28T16:18:40;4.70;56.90
35381;DHT22;21486;51.916;8.378;2023-02-28T16:21:05;4.70;56.90
35381;DHT22;21486;51.916;8.378;2023-02-28T16:23:31;4.70;57.00
35381;DHT22;21486;51.916;8.378;2023-02-28T16:25:56;4.70;57.30
35381;DHT22;21486;51.916;8.378;2023-02-28T16:28:30;4.60;57.90
35381;DHT22;21486;51.916;8.378;2023-02-28T16:30:57;4.50;58.30
35381;DHT22;21486;51.916;8.378;2023-02-28T16:33:24;4.40;58.50
35381;DHT22;21486;51.916;8.378;2023-02-28T16:35:50;4.40;58.70
35381;DHT22;21486;51.916;8.378;2023-02-28T16:38:15;4.40;59.00
35381;DHT22;21486;51.916;8.378;2023-02-28T16:40:41;4.40;59.80
35381;DHT22;21486;51.916;8.378;2023-02-28T16:43:16;4.20;59.80
35381;DHT22;21486;51.916;8.378;2023-02-28T16:45:42;4.20;60.20
35381;DHT22;21486;51.916;8.378;2023-02-28T16:48:10;4.20;60.60
35381;DHT22;21486;51.916;8.378;2023-02-28T16:50:37;4.10;61.10
35381;DHT22;21486;51.916;8.378;2023-02-28T16:53:04;4.00;61.50
35381;DHT22;21486;51.916;8.378;2023-02-28T16:55:29;4.10;61.30
35381;DHT22;21486;51.916;8.378;2023-02-28T16:57:59;3.90;61.70
35381;DHT22;21486;51.916;8.378;2023-02-28T17:00:24;3.80;62.10
35381;DHT22;21486;51.916;8.378;2023-02-28T17:02:50;3.70;62.50
35381;DHT22;21486;51.916;8.378;2023-02-28T17:05:16;3.60;62.70
35381;DHT22;21486;51.916;8.378;2023-02-28T17:07:42;3.80;62.50
35381;DHT22;21486;51.916;8.378;2023-02-28T17:10:18;3.70;62.70
35381;DHT22;21486;51.916;8.378;2023-02-28T17:12:44;3.60;62.70
35381;DHT22;21486;51.916;8.378;2023-02-28T17:15:14;3.50;63.00
35381;DHT22;21486;51.916;8.378;2023-02-28T17:17:40;3.40;63.20
35381;DHT22;21486;51.916;8.378;2023-02-28T17:20:11;3.30;64.20
35381;DHT22;21486;51.916;8.378;2023-02-28T17:22:37;3.20;64.50
35381;DHT22;21486;51.916;8.378;2023-02-28T17:25:02;3.10;64.70
35381;DHT22;21486;51.916;8.378;2023-02-28T17:27:28;3.00;65.40
35381;DHT22;21486;51.916;8.378;2023-02-28T17:29:53;2.90;65.80
35381;DHT22;21486;51.916;8.378;2023-02-28T17:32:19;2.70;66.40
35381;DHT22;21486;51.916;8.378;2023-02-28T17:34:44;2.60;66.30
35381;DHT22;21486;51.916;8.378;2023-02-28T17:37:11;2.60;67.00
35381;DHT22;21486;51.916;8.378;2023-02-28T17:39:36;2.50;67.30
35381;DHT22;21486;51.916;8.378;2023-02-28T17:42:02;2.50;68.30
35381;DHT22;21486;51.916;8.378;2023-02-28T17:44:27;2.40;67.10
35381;DHT22;21486;51.916;8.378;2023-02-28T17:46:54;2.40;68.00
35381;DHT22;21486;51.916;8.378;2023-02-28T17:49:20;2.40;67.70
35381;DHT22;21486;51.916;8.378;2023-02-28T17:51:45;2.40;68.80
35381;DHT22;21486;51.916;8.378;2023-02-28T17:54:11;2.20;68.90
35381;DHT22;21486;51.916;8.378;2023-02-28T17:56:37;2.20;69.30